Terminal Aerodrome Forecast
Issued by NWS North Platte, NE

Home | Current Version | Previous Version | Text Only | Print | Product List | Glossary On
Versions: 1 2 3 4 5 6 7 8 9 10 11 12 13 14 15 16 17 18 19 20 21 22 23 24 25 26 27 28 29 30
709
FTUS43 KLBF 130520
TAFVTN
TAF
KVTN 130520Z 1306/1406 13010KT P6SM BKN040 OVC070
     FM130800 14012KT P6SM OVC025
     FM131000 15012KT P6SM OVC015
     FM131700 18015G23KT P6SM OVC030
     FM131900 18015G24KT P6SM OVC040
     FM140000 18014KT P6SM OVC030
     FM140300 19010KT P6SM OVC020=

USA.gov is the U.S. government's official web portal to all federal, state and local government web resources and services.